Toronto, Canada
Current Conditions -  °F | °C
As of 7:00 PM on Friday 28 Nov 2014 (Local Time) from CYYZ Reporting Station
Broken Clouds Broken Clouds  
Wind Chill: 13°   Ceiling: 12000
Heat Index: 25°   Visibility: 15mi
Dew Point: 14°   Wind: 13mph
Humidity: 64%   Direction: 250°WSW
Pressure: 30.21"   Gusts: NA
Location:  43.65°N, 79.39°W
Report Text: CYYZ 290000Z 25011KT 15SM FEW025 FEW040 BKN120 M04/M10 A3021 RMK SF1SC1AC7 SF TR SC TR SLP241
Loading
Personal Weather Stations






























Interactive Weather Map New forecast layout! Learn more

10-Day Weather Forecast

Advertisements
Track Severe Weather on mobile